Puspokladany, Hungary
Current Conditions -  °F | °C
As of 5:45 PM on Monday 24 Nov 2014 (Local Time) from LHDC Reporting Station
Few Clouds Few Clouds  
Wind Chill: 31°   Ceiling: Unl
Heat Index: 36°   Visibility: 4mi
Dew Point: 32°   Wind: 6mph
Humidity: 87%   Direction: 70°ENE
Pressure: 30.36"   Gusts: NA
Location:  47.32°N, 21.12°E
Report Text: LHDC 241545Z 07005KT 6000 FEW200 02/00 Q1028
Loading
Personal Weather Stations






























Interactive Weather Map New forecast layout! Learn more

10-Day Weather Forecast

Advertisements
Track Severe Weather on mobile